Main page
METAR-TAF:

METAR-TAF

Airports :

Nueces County Airport

Robstown, Texas, United States

latitude: 27-46-42N, longitude: 097-41-25W, elevation: 79 ft

Current weather observation

The report was made 12 minutes ago, at 16:55 UTC
Wind 5 mph from the West/Northwest
Temperature 75°F
Humidity 54%
Pressure 30.05 in. Hg
Visibility: 10 miles
Clear sky

METAR: KRBO 201655Z AUTO 29004KT 10SM CLR 24/14 A3005 RMK AO2 T02440140

Time: 12:07 (17:07 UTC)


TAF: missing

Weather observations and forecasts of more than 4000 airports (METAR and TAF reports).

The available stations are represented by yellow and red dots on the map.

Hover mouse over dot to see the name of the station.

Then click to see weather observations and forecasts.

To change the map : click on the green buttons with a black cross to zoom in, on the green button with a dash to zoom out, or on the green arrows for adjacent maps.


METAR-TAF: